createdAt,value
2023-05-11T00:00:40.219Z,64.72
2023-05-11T00:01:40.231Z,64.10
2023-05-11T00:02:40.268Z,63.95
2023-05-11T00:03:40.332Z,64.08
2023-05-11T00:04:40.363Z,64.42
2023-05-11T00:05:40.300Z,64.71
2023-05-11T00:06:40.331Z,64.08
2023-05-11T00:07:40.329Z,62.77
2023-05-11T00:08:40.429Z,62.48
2023-05-11T00:09:40.483Z,62.96
2023-05-11T00:10:40.488Z,61.88
2023-05-11T00:11:40.573Z,61.69
2023-05-11T00:12:40.606Z,62.35
2023-05-11T00:13:40.664Z,62.53
2023-05-11T00:14:40.727Z,62.03
2023-05-11T00:15:40.818Z,61.72
2023-05-11T00:16:40.817Z,62.23
2023-05-11T00:17:40.921Z,62.26
2023-05-11T00:18:40.936Z,61.79
2023-05-11T00:19:40.908Z,62.01
2023-05-11T00:20:40.869Z,61.43
2023-05-11T00:21:40.969Z,61.28
2023-05-11T00:22:42.844Z,61.63
2023-05-11T00:23:40.973Z,61.72
2023-05-11T00:24:40.980Z,61.30
2023-05-11T00:25:41.001Z,60.53
2023-05-11T00:26:40.976Z,60.55
2023-05-11T00:27:41.754Z,60.76
2023-05-11T00:28:41.011Z,61.29
2023-05-11T00:29:41.012Z,61.20
2023-05-11T00:30:40.909Z,60.89
2023-05-11T00:31:41.015Z,60.71
2023-05-11T00:32:40.900Z,61.49
2023-05-11T00:33:40.904Z,61.35
2023-05-11T00:34:40.879Z,61.63
2023-05-11T00:35:40.888Z,61.52
2023-05-11T00:36:41.390Z,61.69
2023-05-11T00:37:40.890Z,62.86
2023-05-11T00:38:40.882Z,62.40
2023-05-11T00:39:40.909Z,62.61
2023-05-11T00:40:40.901Z,62.60
2023-05-11T00:41:40.868Z,62.70
2023-05-11T00:42:40.823Z,63.76
2023-05-11T00:43:40.844Z,63.78
2023-05-11T00:44:40.794Z,63.95
2023-05-11T00:45:40.801Z,63.26
2023-05-11T00:46:40.890Z,62.78
2023-05-11T00:47:40.837Z,62.65
2023-05-11T00:48:40.806Z,62.16
2023-05-11T00:49:40.813Z,61.91
2023-05-11T00:50:40.768Z,61.66
2023-05-11T00:51:40.733Z,63.11
2023-05-11T00:52:40.756Z,64.03
2023-05-11T00:53:40.769Z,63.74
2023-05-11T00:54:40.752Z,62.05
2023-05-11T00:55:40.775Z,61.91
2023-05-11T00:56:40.717Z,62.48
2023-05-11T00:57:40.744Z,62.96
2023-05-11T00:58:40.722Z,63.44
2023-05-11T00:59:40.734Z,62.77
2023-05-11T01:00:40.720Z,62.03
2023-05-11T01:01:40.702Z,61.67
2023-05-11T01:02:40.898Z,62.49
2023-05-11T01:03:40.666Z,62.41
2023-05-11T01:04:40.658Z,61.86
2023-05-11T01:05:40.659Z,61.81
2023-05-11T01:06:40.642Z,62.35
2023-05-11T01:07:40.646Z,62.72
2023-05-11T01:08:40.647Z,62.78
2023-05-11T01:09:40.674Z,62.62
2023-05-11T01:10:40.654Z,62.25
2023-05-11T01:11:40.656Z,62.24
2023-05-11T01:12:40.642Z,61.98
2023-05-11T01:13:40.601Z,61.57
2023-05-11T01:14:40.604Z,61.52
2023-05-11T01:15:40.595Z,61.96
2023-05-11T01:16:40.636Z,61.85
2023-05-11T01:17:40.627Z,61.71
2023-05-11T01:18:40.621Z,62.13
2023-05-11T01:19:40.588Z,62.14
2023-05-11T01:20:40.547Z,62.23
2023-05-11T01:21:40.554Z,62.69
2023-05-11T01:22:40.574Z,63.37
2023-05-11T01:23:40.547Z,63.61
2023-05-11T01:24:40.520Z,63.66
2023-05-11T01:25:40.557Z,63.86
2023-05-11T01:26:40.544Z,64.56
2023-05-11T01:27:40.579Z,64.51
2023-05-11T01:28:40.651Z,64.42
2023-05-11T01:29:40.672Z,64.62
2023-05-11T01:30:40.757Z,65.02
2023-05-11T01:31:40.884Z,64.95
2023-05-11T01:33:40.950Z,65.42
2023-05-11T01:34:41.046Z,64.99
2023-05-11T01:35:41.036Z,65.11
2023-05-11T01:36:41.107Z,65.46
2023-05-11T01:37:41.122Z,65.18
2023-05-11T01:38:41.144Z,64.87
2023-05-11T01:39:41.246Z,65.60
2023-05-11T01:40:41.213Z,66.01
2023-05-11T01:41:41.298Z,66.61
2023-05-11T01:42:41.302Z,65.34
2023-05-11T01:43:41.353Z,65.19
2023-05-11T01:44:41.373Z,65.44
2023-05-11T01:45:41.393Z,65.20
2023-05-11T01:46:41.402Z,64.25
2023-05-11T01:47:41.410Z,63.58
2023-05-11T01:48:41.383Z,64.53
2023-05-11T01:49:41.411Z,64.74
2023-05-11T01:50:41.445Z,65.13
2023-05-11T01:51:41.412Z,64.78
2023-05-11T01:52:41.458Z,64.56
2023-05-11T01:53:41.479Z,65.57
2023-05-11T01:54:41.466Z,65.93
2023-05-11T01:55:41.502Z,66.05
2023-05-11T01:56:41.485Z,66.64
2023-05-11T01:57:41.522Z,67.25
2023-05-11T01:58:41.519Z,67.38
2023-05-11T01:59:41.507Z,67.95
2023-05-11T02:00:41.482Z,67.10
2023-05-11T02:01:41.585Z,66.93
2023-05-11T02:02:41.590Z,66.66
2023-05-11T02:03:41.648Z,67.65
2023-05-11T02:04:41.572Z,67.76
2023-05-11T02:05:41.649Z,68.17
2023-05-11T02:06:41.663Z,67.55
2023-05-11T02:07:41.610Z,67.42
2023-05-11T02:08:41.678Z,67.65
2023-05-11T02:09:41.667Z,67.16
2023-05-11T02:10:41.669Z,67.47
2023-05-11T02:11:41.654Z,67.14
2023-05-11T02:12:41.680Z,66.81
2023-05-11T02:13:41.652Z,67.02
2023-05-11T02:14:41.701Z,67.02
2023-05-11T02:15:41.763Z,66.48
2023-05-11T02:16:41.722Z,66.18
2023-05-11T02:17:41.779Z,66.62
2023-05-11T02:18:41.927Z,66.61
2023-05-11T02:19:41.844Z,66.99
2023-05-11T02:20:41.994Z,66.59
2023-05-11T02:21:42.009Z,65.99
2023-05-11T02:22:42.013Z,65.47
2023-05-11T02:23:42.048Z,65.36
2023-05-11T02:24:42.093Z,65.93
2023-05-11T02:25:42.187Z,65.97
2023-05-11T02:26:42.203Z,66.88
2023-05-11T02:27:42.219Z,67.46
2023-05-11T02:28:42.329Z,66.45
2023-05-11T02:29:42.343Z,67.05
2023-05-11T02:30:42.746Z,66.34
2023-05-11T02:31:42.616Z,66.08
2023-05-11T02:32:42.479Z,65.55
2023-05-11T02:33:42.510Z,65.76
2023-05-11T02:34:42.509Z,66.03
2023-05-11T02:35:42.624Z,66.47
2023-05-11T02:36:42.642Z,66.07
2023-05-11T02:37:42.687Z,65.72
2023-05-11T02:38:42.713Z,65.89
2023-05-11T02:39:42.762Z,66.57
2023-05-11T02:40:42.811Z,66.50
2023-05-11T02:41:42.880Z,65.98
2023-05-11T02:42:42.944Z,65.57
2023-05-11T02:43:42.937Z,65.32
2023-05-11T02:44:43.046Z,66.21
2023-05-11T02:45:43.042Z,65.59
2023-05-11T02:46:43.142Z,64.65
2023-05-11T02:47:43.106Z,64.42
2023-05-11T02:48:43.124Z,63.39
2023-05-11T02:49:43.177Z,64.14
2023-05-11T02:50:43.208Z,64.80
2023-05-11T02:51:43.221Z,64.53
2023-05-11T02:52:43.264Z,65.39
2023-05-11T02:53:43.305Z,64.84
2023-05-11T02:54:43.349Z,64.39
2023-05-11T02:55:43.411Z,63.89
2023-05-11T02:56:43.430Z,63.70
2023-05-11T02:57:43.411Z,64.22
2023-05-11T02:58:43.416Z,64.74
2023-05-11T02:59:43.483Z,64.61
2023-05-11T03:00:43.560Z,63.92
2023-05-11T03:01:43.699Z,63.91
2023-05-11T03:02:43.722Z,64.93
2023-05-11T03:03:43.812Z,65.33
2023-05-11T03:04:43.734Z,65.50
2023-05-11T03:05:43.821Z,65.40
2023-05-11T03:06:43.860Z,65.27
2023-05-11T03:07:43.966Z,65.25
2023-05-11T03:08:44.008Z,65.84
2023-05-11T03:09:44.030Z,65.96
2023-05-11T03:10:44.122Z,65.80
2023-05-11T03:11:44.160Z,66.32
2023-05-11T03:12:44.214Z,65.48
2023-05-11T03:13:44.267Z,66.10
2023-05-11T03:14:44.319Z,65.98
2023-05-11T03:15:44.835Z,66.36
2023-05-11T03:16:44.477Z,66.20
2023-05-11T03:17:44.532Z,66.28
2023-05-11T03:18:44.578Z,66.41
2023-05-11T03:19:44.589Z,67.15
2023-05-11T03:20:44.650Z,66.73
2023-05-11T03:21:44.707Z,66.37
2023-05-11T03:22:44.738Z,66.35
2023-05-11T03:23:44.816Z,66.60
2023-05-11T03:24:44.840Z,66.56
2023-05-11T03:25:44.999Z,65.97
2023-05-11T03:26:44.983Z,66.28
2023-05-11T03:27:45.025Z,67.24
2023-05-11T03:28:45.129Z,67.08
2023-05-11T03:29:45.081Z,66.20
2023-05-11T03:30:45.100Z,66.05
2023-05-11T03:31:45.146Z,66.41
2023-05-11T03:32:45.209Z,66.12
2023-05-11T03:33:45.168Z,66.54
2023-05-11T03:34:45.194Z,66.50
2023-05-11T03:35:45.232Z,66.31
2023-05-11T03:36:45.313Z,66.82
2023-05-11T03:37:45.365Z,67.08
2023-05-11T03:38:45.401Z,66.82
2023-05-11T03:39:45.435Z,66.40
2023-05-11T03:40:45.533Z,65.63
2023-05-11T03:41:45.561Z,65.48
2023-05-11T03:42:45.609Z,65.31
2023-05-11T03:43:45.655Z,65.07
2023-05-11T03:44:45.685Z,65.67
2023-05-11T03:45:45.744Z,65.40
2023-05-11T03:46:45.722Z,64.89
2023-05-11T03:47:45.794Z,65.06
2023-05-11T03:48:45.791Z,65.18
2023-05-11T03:49:45.838Z,65.69
2023-05-11T03:50:45.914Z,65.33
2023-05-11T03:51:45.937Z,64.78
2023-05-11T03:52:45.979Z,65.34
2023-05-11T03:53:46.047Z,65.16
2023-05-11T03:54:46.080Z,64.34
2023-05-11T03:55:46.110Z,64.75
2023-05-11T03:56:46.210Z,65.18
2023-05-11T03:57:46.165Z,65.25
2023-05-11T03:58:46.237Z,65.58
2023-05-11T03:59:46.247Z,66.16
2023-05-11T04:00:46.306Z,66.01
2023-05-11T04:01:46.311Z,65.99
2023-05-11T04:02:46.531Z,65.78
2023-05-11T04:03:46.646Z,66.20
2023-05-11T04:04:46.472Z,65.76
2023-05-11T04:05:46.469Z,65.68
2023-05-11T04:06:46.503Z,66.32
2023-05-11T04:07:46.560Z,65.95
2023-05-11T04:08:46.595Z,66.03
2023-05-11T04:09:46.657Z,66.88
2023-05-11T04:10:46.683Z,66.57
2023-05-11T04:11:46.774Z,66.16
2023-05-11T04:12:46.830Z,66.08
2023-05-11T04:13:46.904Z,65.49
2023-05-11T04:14:46.929Z,65.57
2023-05-11T04:15:47.030Z,65.20
2023-05-11T04:16:47.041Z,64.74
2023-05-11T04:17:47.101Z,64.52
2023-05-11T04:18:47.193Z,64.26
2023-05-11T04:19:47.194Z,64.49
2023-05-11T04:20:47.234Z,64.89
2023-05-11T04:21:47.251Z,65.31
2023-05-11T04:22:47.291Z,65.65
2023-05-11T04:23:47.320Z,64.96
2023-05-11T04:24:47.376Z,65.40
2023-05-11T04:25:47.424Z,65.55
2023-05-11T04:26:47.423Z,65.13
2023-05-11T04:27:47.443Z,65.13
2023-05-11T04:28:47.491Z,65.34
2023-05-11T04:29:47.483Z,64.75
2023-05-11T04:30:47.542Z,64.71
2023-05-11T04:31:47.612Z,64.51
2023-05-11T04:32:47.748Z,64.80
2023-05-11T04:33:47.685Z,64.62
2023-05-11T04:34:47.763Z,65.01
2023-05-11T04:35:47.780Z,64.70
2023-05-11T04:36:47.814Z,64.35
2023-05-11T04:37:47.917Z,64.19
2023-05-11T04:38:47.941Z,64.63
2023-05-11T04:39:47.984Z,63.85
2023-05-11T04:40:48.063Z,63.97
2023-05-11T04:41:48.098Z,64.09
2023-05-11T04:42:48.102Z,63.55
2023-05-11T04:43:48.092Z,63.85
2023-05-11T04:44:48.152Z,63.64
2023-05-11T04:45:48.194Z,63.22
2023-05-11T04:46:48.265Z,63.69
2023-05-11T04:47:48.164Z,63.69
2023-05-11T04:48:48.216Z,63.31
2023-05-11T04:49:48.265Z,63.18
2023-05-11T04:50:48.364Z,62.53
2023-05-11T04:51:48.387Z,62.65
2023-05-11T04:52:48.349Z,63.15
2023-05-11T04:53:48.343Z,63.10
2023-05-11T04:54:48.322Z,63.67
2023-05-11T04:55:48.445Z,63.49
2023-05-11T04:56:48.366Z,63.64
2023-05-11T04:57:48.394Z,63.07
2023-05-11T04:58:48.423Z,62.97
2023-05-11T04:59:48.445Z,63.21
2023-05-11T05:02:15.985Z,62.65
2023-05-11T05:03:08.239Z,62.59
2023-05-11T05:04:08.182Z,62.06
2023-05-11T05:05:08.029Z,61.85
2023-05-11T05:06:08.705Z,61.85
2023-05-11T05:07:08.142Z,61.74
2023-05-11T05:08:08.695Z,62.05
2023-05-11T05:09:08.190Z,62.39
2023-05-11T05:10:08.205Z,62.60
2023-05-11T05:11:09.237Z,62.66
2023-05-11T05:12:08.218Z,62.36
2023-05-11T05:13:08.222Z,61.85
2023-05-11T05:14:08.180Z,62.82
2023-05-11T05:15:08.673Z,62.05
2023-05-11T05:16:08.185Z,62.02
2023-05-11T05:17:08.285Z,61.84
2023-05-11T05:18:08.253Z,61.10
2023-05-11T05:19:08.293Z,61.40
2023-05-11T05:20:08.127Z,62.01
2023-05-11T05:21:08.633Z,62.65
2023-05-11T05:22:08.141Z,62.49
2023-05-11T05:23:08.161Z,62.38
2023-05-11T05:24:08.666Z,61.97
2023-05-11T05:25:08.399Z,62.55
2023-05-11T05:26:09.198Z,62.99
2023-05-11T05:27:08.224Z,62.81
2023-05-11T05:28:09.238Z,61.83
2023-05-11T05:29:08.761Z,60.72
2023-05-11T05:30:09.223Z,60.46
2023-05-11T05:31:08.359Z,61.77
2023-05-11T05:32:08.177Z,62.01
2023-05-11T05:33:08.201Z,61.94
2023-05-11T05:34:08.156Z,61.23
2023-05-11T05:35:08.194Z,60.49
2023-05-11T05:36:08.238Z,61.09
2023-05-11T05:37:08.160Z,60.52
2023-05-11T05:38:08.831Z,60.92
2023-05-11T05:39:08.193Z,61.88
2023-05-11T05:40:08.186Z,61.36
2023-05-11T05:41:08.310Z,60.66
2023-05-11T05:42:08.198Z,59.43
2023-05-11T05:43:08.093Z,59.85
2023-05-11T05:44:08.191Z,60.03
2023-05-11T05:46:35.390Z,59.33
2023-05-11T05:47:27.613Z,59.11
2023-05-11T05:48:27.596Z,58.90
2023-05-11T05:49:27.560Z,58.60
2023-05-11T05:50:27.562Z,58.76
2023-05-11T05:51:28.169Z,58.47
2023-05-11T05:52:27.505Z,58.52
2023-05-11T05:53:27.582Z,59.32
2023-05-11T05:54:28.311Z,59.47
2023-05-11T05:55:28.560Z,60.39
2023-05-11T05:56:28.412Z,61.56
2023-05-11T05:57:27.560Z,62.50
2023-05-11T05:58:27.520Z,63.53
2023-05-11T05:59:27.508Z,62.53
2023-05-11T06:00:27.639Z,61.37
2023-05-11T06:01:27.786Z,60.91
2023-05-11T06:02:27.696Z,60.61
2023-05-11T06:03:29.216Z,59.94
2023-05-11T06:04:27.682Z,60.75
2023-05-11T06:05:27.712Z,61.02
2023-05-11T06:06:27.735Z,60.82
2023-05-11T06:07:28.303Z,62.33
2023-05-11T06:08:27.873Z,62.51
2023-05-11T06:09:27.857Z,62.07
2023-05-11T06:10:27.885Z,61.31
2023-05-11T06:11:27.908Z,61.02
2023-05-11T06:12:28.298Z,60.76
2023-05-11T06:13:28.074Z,60.05
2023-05-11T06:14:27.901Z,60.14
2023-05-11T06:15:27.895Z,59.38
2023-05-11T06:16:28.107Z,59.34
2023-05-11T06:17:27.924Z,60.03
2023-05-11T06:18:27.942Z,59.95
2023-05-11T06:19:27.959Z,60.19
2023-05-11T06:20:28.342Z,60.00
2023-05-11T06:21:28.022Z,59.68
2023-05-11T06:22:28.331Z,59.29
2023-05-11T06:23:27.937Z,58.93
2023-05-11T06:24:28.304Z,59.01
2023-05-11T06:25:27.996Z,59.54
2023-05-11T06:26:27.955Z,59.26
2023-05-11T06:27:28.302Z,57.82
2023-05-11T06:28:28.387Z,58.32
2023-05-11T06:29:28.790Z,59.01
2023-05-11T06:30:28.757Z,57.77
2023-05-11T06:31:28.224Z,57.93
2023-05-11T06:32:28.326Z,58.53
2023-05-11T06:33:28.157Z,57.87
2023-05-11T06:34:28.246Z,57.82
2023-05-11T06:35:29.251Z,57.59
2023-05-11T06:36:28.370Z,58.26
2023-05-11T06:37:28.324Z,58.68
2023-05-11T06:38:28.473Z,57.69
2023-05-11T06:39:28.451Z,57.58
2023-05-11T06:40:28.504Z,56.65
2023-05-11T06:41:28.576Z,57.26
2023-05-11T06:42:28.801Z,58.10
2023-05-11T06:43:28.692Z,58.94
2023-05-11T06:44:28.701Z,56.79
2023-05-11T06:45:28.829Z,57.15
2023-05-11T06:46:28.874Z,58.30
2023-05-11T06:47:28.950Z,58.17
2023-05-11T06:48:28.924Z,59.06
2023-05-11T06:49:29.149Z,58.69
2023-05-11T06:50:29.840Z,58.78
2023-05-11T06:51:29.059Z,58.14
2023-05-11T06:52:29.174Z,58.32
2023-05-11T06:53:29.139Z,58.78
2023-05-11T06:54:29.167Z,59.87
2023-05-11T06:55:29.187Z,60.29
2023-05-11T06:56:29.268Z,58.72
2023-05-11T06:57:29.829Z,58.64
2023-05-11T06:58:29.457Z,58.02
2023-05-11T06:59:29.517Z,57.88
2023-05-11T07:00:29.622Z,58.59
2023-05-11T07:01:29.642Z,58.28
2023-05-11T07:02:29.677Z,59.22
2023-05-11T07:03:29.956Z,58.97
2023-05-11T07:04:29.918Z,58.69
2023-05-11T07:05:29.675Z,58.37
2023-05-11T07:06:29.681Z,58.16
2023-05-11T07:07:29.852Z,58.97
2023-05-11T07:08:37.292Z,59.21
2023-05-11T07:09:29.750Z,60.37
2023-05-11T07:10:29.659Z,59.11
2023-05-11T07:11:29.716Z,59.20
2023-05-11T07:12:29.826Z,58.00
2023-05-11T07:13:29.840Z,57.29
2023-05-11T07:14:30.095Z,57.49
2023-05-11T07:15:30.248Z,57.90
2023-05-11T07:16:29.630Z,58.51
2023-05-11T07:17:29.756Z,57.54
2023-05-11T07:18:29.837Z,56.18
2023-05-11T07:19:30.036Z,56.02
2023-05-11T07:20:29.611Z,56.24
2023-05-11T07:21:29.654Z,56.24
2023-05-11T07:22:29.810Z,55.88
2023-05-11T07:23:29.602Z,56.30
2023-05-11T07:24:29.974Z,56.11
2023-05-11T07:25:29.695Z,55.99
2023-05-11T07:26:29.925Z,56.03
2023-05-11T07:27:29.827Z,56.36
2023-05-11T07:28:29.890Z,56.45
2023-05-11T07:29:29.903Z,56.55
2023-05-11T07:30:29.947Z,55.71
2023-05-11T07:31:29.936Z,57.13
2023-05-11T07:32:30.383Z,57.28
2023-05-11T07:33:30.091Z,57.59
2023-05-11T07:34:30.090Z,57.27
2023-05-11T07:35:30.147Z,58.51
2023-05-11T07:36:30.187Z,56.94
2023-05-11T07:37:30.331Z,56.44
2023-05-11T07:38:30.206Z,56.58
2023-05-11T07:39:30.232Z,56.37
2023-05-11T07:40:30.251Z,56.05
2023-05-11T07:41:30.315Z,55.78
2023-05-11T07:42:30.843Z,56.46
2023-05-11T07:43:30.369Z,55.94
2023-05-11T07:44:30.338Z,56.69
2023-05-11T07:45:30.430Z,56.42
2023-05-11T07:46:30.366Z,57.00
2023-05-11T07:47:30.383Z,57.29
2023-05-11T07:48:30.430Z,58.10
2023-05-11T07:49:40.005Z,58.90
2023-05-11T07:50:31.509Z,58.75
2023-05-11T07:51:30.508Z,58.29
2023-05-11T07:52:30.453Z,58.50
2023-05-11T07:53:30.487Z,58.59
2023-05-11T07:54:30.438Z,59.16
2023-05-11T07:55:30.613Z,58.88
2023-05-11T07:56:30.401Z,57.61
2023-05-11T07:57:30.408Z,57.74
2023-05-11T07:58:30.419Z,57.45
2023-05-11T07:59:30.428Z,56.96
2023-05-11T08:00:30.378Z,57.57
2023-05-11T08:01:30.356Z,58.01
2023-05-11T08:02:30.433Z,57.88
2023-05-11T08:03:30.536Z,58.77
2023-05-11T08:04:30.391Z,56.86
2023-05-11T08:05:30.370Z,57.23
2023-05-11T08:06:30.335Z,58.16
2023-05-11T08:07:30.338Z,58.19
2023-05-11T08:08:30.495Z,57.93
2023-05-11T08:09:30.463Z,57.66
2023-05-11T08:10:30.363Z,57.75
2023-05-11T08:11:30.447Z,57.91
2023-05-11T08:12:30.478Z,57.22
2023-05-11T08:13:30.624Z,57.24
2023-05-11T08:14:30.558Z,58.10
2023-05-11T08:15:30.534Z,57.15
2023-05-11T08:16:30.674Z,58.05
2023-05-11T08:17:30.748Z,57.81
2023-05-11T08:18:30.876Z,57.81
2023-05-11T08:19:30.847Z,58.52
2023-05-11T08:20:30.877Z,58.07
2023-05-11T08:21:30.892Z,58.05
2023-05-11T08:22:30.946Z,57.46
2023-05-11T08:23:31.041Z,57.58
2023-05-11T08:24:31.062Z,57.46
2023-05-11T08:25:31.132Z,58.31
2023-05-11T08:26:31.172Z,58.70
2023-05-11T08:27:31.131Z,58.00
2023-05-11T08:28:31.197Z,58.51
2023-05-11T08:29:38.809Z,58.54
2023-05-11T08:30:31.255Z,58.80
2023-05-11T08:31:31.225Z,58.41
2023-05-11T08:32:31.251Z,57.97
2023-05-11T08:33:37.965Z,58.29
2023-05-11T08:34:32.212Z,57.93
2023-05-11T08:35:31.179Z,57.95
2023-05-11T08:36:31.176Z,59.21
2023-05-11T08:37:31.174Z,59.08
2023-05-11T08:38:31.200Z,58.44
2023-05-11T08:39:46.049Z,58.76
2023-05-11T08:40:32.118Z,57.98
2023-05-11T08:41:31.224Z,57.60
2023-05-11T08:42:31.304Z,56.99
2023-05-11T08:43:31.198Z,57.20
2023-05-11T08:44:31.140Z,56.07
2023-05-11T08:45:31.159Z,57.38
2023-05-11T08:46:31.168Z,57.76
2023-05-11T08:47:31.206Z,56.56
2023-05-11T08:48:31.493Z,56.83
2023-05-11T08:49:31.141Z,57.33
2023-05-11T08:50:31.214Z,57.36
2023-05-11T08:51:31.780Z,57.13
2023-05-11T08:52:31.278Z,56.81
2023-05-11T08:53:31.425Z,55.53
2023-05-11T08:54:31.425Z,55.52
2023-05-11T08:55:31.530Z,56.07
2023-05-11T08:56:31.538Z,56.38
2023-05-11T08:57:31.521Z,56.28
2023-05-11T08:58:31.523Z,58.04
2023-05-11T08:59:31.524Z,58.36
2023-05-11T09:00:31.590Z,58.24
2023-05-11T09:01:31.564Z,56.95
2023-05-11T09:02:32.619Z,58.37
2023-05-11T09:03:31.575Z,56.93
2023-05-11T09:04:31.561Z,56.10
2023-05-11T09:05:31.520Z,56.77
2023-05-11T09:06:31.574Z,56.28
2023-05-11T09:07:31.622Z,56.47
2023-05-11T09:08:32.349Z,56.66
2023-05-11T09:09:31.819Z,58.22
2023-05-11T09:10:32.221Z,57.92
2023-05-11T09:11:31.833Z,56.09
2023-05-11T09:12:31.844Z,54.46
2023-05-11T09:13:32.288Z,53.87
2023-05-11T09:14:31.869Z,54.80
2023-05-11T09:15:36.927Z,56.13
2023-05-11T09:16:37.315Z,55.10
2023-05-11T09:17:32.038Z,56.94
2023-05-11T09:18:32.413Z,56.63
2023-05-11T09:19:32.439Z,55.42
2023-05-11T09:20:32.315Z,56.21
2023-05-11T09:21:32.515Z,56.51
2023-05-11T09:22:33.841Z,58.02
2023-05-11T09:23:32.437Z,58.32
2023-05-11T09:24:31.893Z,59.22
2023-05-11T09:25:32.350Z,58.63
2023-05-11T09:26:31.924Z,57.89
2023-05-11T09:27:33.616Z,59.55
2023-05-11T09:29:31.882Z,59.06
2023-05-11T09:30:32.544Z,60.06
2023-05-11T09:31:32.023Z,60.20
2023-05-11T09:32:31.918Z,58.24
2023-05-11T09:33:31.857Z,58.72
2023-05-11T09:34:31.899Z,57.24
2023-05-11T09:35:32.909Z,55.66
2023-05-11T09:36:31.843Z,56.62
2023-05-11T09:37:31.848Z,57.69
2023-05-11T09:38:32.409Z,58.00
2023-05-11T09:39:38.201Z,58.14
2023-05-11T09:42:31.898Z,56.68
2023-05-11T09:43:31.904Z,57.09
2023-05-11T09:44:32.182Z,57.61
2023-05-11T09:45:31.782Z,57.33
2023-05-11T09:46:32.183Z,56.92
2023-05-11T09:47:31.815Z,57.37
2023-05-11T09:48:31.948Z,57.11
2023-05-11T09:49:32.003Z,57.88
2023-05-11T09:50:31.737Z,58.16
2023-05-11T09:51:32.082Z,59.25
2023-05-11T09:52:31.817Z,59.03
2023-05-11T09:53:31.726Z,57.97
2023-05-11T09:54:32.147Z,58.49
2023-05-11T09:55:31.741Z,58.16
2023-05-11T09:56:31.729Z,58.13
2023-05-11T09:57:31.784Z,59.02
2023-05-11T09:58:31.734Z,60.10
2023-05-11T09:59:32.229Z,59.21
2023-05-11T10:00:31.692Z,59.77
2023-05-11T10:01:31.763Z,59.53
2023-05-11T10:02:32.365Z,59.50
2023-05-11T10:03:32.511Z,60.49
2023-05-11T10:04:31.815Z,60.61
2023-05-11T10:05:31.808Z,60.53
2023-05-11T10:06:31.614Z,60.98
2023-05-11T10:07:31.625Z,60.30
2023-05-11T10:08:31.656Z,60.84
2023-05-11T10:09:32.721Z,61.71
2023-05-11T10:10:31.705Z,61.53
2023-05-11T10:11:31.862Z,61.12
2023-05-11T10:12:31.856Z,61.18
2023-05-11T10:13:31.644Z,60.55
2023-05-11T10:14:32.136Z,60.83
2023-05-11T10:15:31.615Z,61.51
2023-05-11T10:16:31.663Z,61.69
2023-05-11T10:17:31.626Z,60.86
2023-05-11T10:18:31.795Z,60.07
2023-05-11T10:19:31.653Z,59.58
2023-05-11T10:20:31.989Z,59.57
2023-05-11T10:21:32.019Z,59.81
2023-05-11T10:22:31.640Z,59.95
2023-05-11T10:23:31.739Z,58.81
2023-05-11T10:24:31.741Z,59.26
2023-05-11T10:25:32.365Z,59.57
2023-05-11T10:26:31.610Z,60.01
2023-05-11T10:27:31.675Z,60.60
2023-05-11T10:28:31.757Z,60.01
2023-05-11T10:29:31.968Z,60.10
2023-05-11T10:30:31.613Z,60.17
2023-05-11T10:31:31.625Z,61.09
2023-05-11T10:32:32.408Z,62.42
2023-05-11T10:33:31.648Z,61.22
2023-05-11T10:34:31.951Z,61.03
2023-05-11T10:35:31.522Z,60.22
2023-05-11T10:36:32.618Z,60.56
2023-05-11T10:37:31.704Z,60.55
2023-05-11T10:38:31.581Z,61.39
2023-05-11T10:39:31.840Z,61.08
2023-05-11T10:40:31.737Z,60.76
2023-05-11T10:41:31.667Z,59.29
2023-05-11T10:42:33.353Z,59.31
2023-05-11T10:43:31.659Z,58.75
2023-05-11T10:44:31.867Z,58.82
2023-05-11T10:45:31.812Z,59.79
2023-05-11T10:46:31.864Z,59.75
2023-05-11T10:47:31.899Z,59.03
2023-05-11T10:48:31.842Z,58.66
2023-05-11T10:49:32.815Z,57.77
2023-05-11T10:50:31.955Z,59.25
2023-05-11T10:51:31.996Z,58.50
2023-05-11T10:52:32.038Z,57.39
2023-05-11T10:53:32.691Z,58.14
2023-05-11T10:54:32.347Z,59.28
2023-05-11T10:55:32.715Z,58.43
2023-05-11T10:56:32.053Z,57.86
2023-05-11T10:57:33.615Z,58.43
2023-05-11T10:58:32.201Z,57.70
2023-05-11T10:59:32.724Z,57.15
2023-05-11T11:00:32.276Z,57.46
2023-05-11T11:01:32.321Z,58.07
2023-05-11T11:02:32.320Z,57.42
2023-05-11T11:03:32.618Z,57.08
2023-05-11T11:04:32.887Z,57.84
2023-05-11T11:05:32.445Z,58.26
2023-05-11T11:06:32.477Z,59.22
2023-05-11T11:07:32.575Z,58.73
2023-05-11T11:09:53.173Z,57.54
2023-05-11T11:10:52.212Z,56.40
2023-05-11T11:11:52.221Z,56.85
2023-05-11T11:12:52.163Z,58.22
2023-05-11T11:13:52.210Z,57.84
2023-05-11T11:14:52.203Z,58.45
2023-05-11T11:15:52.170Z,57.16
2023-05-11T11:16:52.179Z,57.30
2023-05-11T11:17:52.146Z,57.11
2023-05-11T11:18:52.234Z,57.85
2023-05-11T11:19:52.381Z,57.91
2023-05-11T11:20:52.164Z,58.22
2023-05-11T11:21:52.238Z,58.06
2023-05-11T11:22:52.124Z,58.84
2023-05-11T11:23:52.210Z,59.70
2023-05-11T11:24:52.161Z,57.60
2023-05-11T11:25:53.770Z,57.87
2023-05-11T11:26:52.187Z,57.99
2023-05-11T11:27:52.197Z,58.13
2023-05-11T11:28:52.150Z,59.34
2023-05-11T11:29:52.187Z,60.24
2023-05-11T11:30:52.776Z,60.13
2023-05-11T11:31:52.158Z,60.24
2023-05-11T11:32:59.820Z,57.79
2023-05-11T11:33:52.173Z,58.99
2023-05-11T11:34:52.083Z,59.28
2023-05-11T11:35:52.323Z,58.35
2023-05-11T11:36:52.040Z,57.62
2023-05-11T11:37:52.135Z,58.26
2023-05-11T11:38:52.669Z,56.33
2023-05-11T11:39:52.020Z,56.39
2023-05-11T11:40:52.521Z,57.15
2023-05-11T11:41:51.965Z,56.81
2023-05-11T11:42:51.987Z,56.98
2023-05-11T11:43:52.039Z,56.85
2023-05-11T11:44:52.079Z,56.25
2023-05-11T11:45:52.203Z,55.54
2023-05-11T11:46:52.229Z,55.17
2023-05-11T11:47:52.173Z,54.67
2023-05-11T11:48:54.386Z,54.90
2023-05-11T11:49:52.311Z,54.71
2023-05-11T11:50:52.184Z,54.81
2023-05-11T11:51:52.208Z,55.08
2023-05-11T11:52:52.182Z,55.38
2023-05-11T11:53:52.146Z,55.63
2023-05-11T11:54:52.197Z,55.36
2023-05-11T11:55:52.166Z,53.07
2023-05-11T11:56:52.256Z,52.71
2023-05-11T11:57:52.136Z,52.93
2023-05-11T11:58:52.172Z,52.73
2023-05-11T11:59:52.204Z,51.67
2023-05-11T12:00:52.249Z,51.42
2023-05-11T12:01:52.101Z,51.75
2023-05-11T12:02:52.234Z,51.38
2023-05-11T12:03:52.224Z,52.98
2023-05-11T12:04:52.112Z,50.43
2023-05-11T12:06:00.271Z,51.87
2023-05-11T12:06:52.120Z,52.12
2023-05-11T12:07:52.189Z,49.92
2023-05-11T12:08:52.132Z,49.64
2023-05-11T12:09:52.157Z,50.60
2023-05-11T12:10:52.152Z,51.51
2023-05-11T12:11:52.259Z,52.73
2023-05-11T12:12:52.269Z,52.04
2023-05-11T12:13:52.238Z,52.17
2023-05-11T12:14:52.324Z,52.61
2023-05-11T12:15:52.364Z,53.24
2023-05-11T12:16:52.429Z,51.48
2023-05-11T12:17:52.456Z,50.86
2023-05-11T12:18:52.649Z,51.04
2023-05-11T12:19:52.435Z,52.36
2023-05-11T12:20:52.443Z,52.03
2023-05-11T12:21:52.634Z,53.66
2023-05-11T12:22:52.614Z,51.64
2023-05-11T12:23:52.574Z,50.15
2023-05-11T12:24:52.914Z,50.41
2023-05-11T12:25:52.834Z,49.93
2023-05-11T12:26:52.634Z,50.25
2023-05-11T12:27:52.745Z,50.05
2023-05-11T12:28:52.787Z,49.87
2023-05-11T12:29:52.782Z,49.84
2023-05-11T12:30:52.802Z,50.80
2023-05-11T12:31:52.875Z,49.89
2023-05-11T12:33:52.831Z,49.55
2023-05-11T12:34:52.836Z,50.55
2023-05-11T12:35:52.899Z,50.91
2023-05-11T12:36:52.813Z,51.48
2023-05-11T12:37:52.818Z,52.41
2023-05-11T12:38:52.807Z,54.07
2023-05-11T12:39:52.900Z,52.71
2023-05-11T12:40:52.825Z,50.42
2023-05-11T12:41:52.828Z,51.58
2023-05-11T12:42:52.796Z,51.04
2023-05-11T12:43:52.788Z,51.25
2023-05-11T12:44:52.780Z,51.23
2023-05-11T12:45:52.882Z,50.87
2023-05-11T12:46:52.804Z,52.24
2023-05-11T12:47:52.850Z,51.34
2023-05-11T12:48:52.868Z,52.27
2023-05-11T12:49:52.867Z,51.47
2023-05-11T12:50:52.732Z,51.19
2023-05-11T12:51:52.765Z,51.23
2023-05-11T12:52:52.822Z,49.80
2023-05-11T12:53:52.709Z,49.71
2023-05-11T12:54:52.747Z,49.37
2023-05-11T12:55:53.280Z,49.50
2023-05-11T12:56:52.730Z,50.72
2023-05-11T12:57:52.810Z,51.28
2023-05-11T12:58:52.747Z,51.22
2023-05-11T12:59:52.680Z,50.54
2023-05-11T13:00:52.727Z,50.73
2023-05-11T13:01:52.727Z,50.75